Time;durP1;ratioP1;P1;durP2;ratioP2;P2;SDS_P1;SDS_P2;PMS_P1;PMS_P2;Temp;Humidity;BMP_temperature;BMP_pressure;BME280_temperature;BME280_humidity;BME280_pressure;Samples;Min_cycle;Max_cycle;Signal;HPM_P1;HPM_P2
2021/03/29 00:00:24;;;;;;;17.38;13.45;;;;;;;9.45;71.39;101867.97;5015562;28;20044;-79
2021/03/29 00:02:50;;;;;;;15.85;11.52;;;;;;;9.35;72.17;101868.16;5017370;28;20033;-80
2021/03/29 00:05:17;;;;;;;16.00;12.77;;;;;;;9.25;72.55;101871.84;5026575;28;20066;-78
2021/03/29 00:07:46;;;;;;;19.33;13.07;;;;;;;8.98;72.43;101806.53;5044871;28;20037;-81
2021/03/29 00:10:13;;;;;;;17.75;12.52;;;;;;;9.50;71.09;101871.72;5036229;28;20026;-81
2021/03/29 00:12:42;;;;;;;20.73;12.80;;;;;;;9.58;70.54;101863.59;5031082;28;20037;-78
2021/03/29 00:15:12;;;;;;;17.08;11.32;;;;;;;9.58;69.96;101856.72;5034410;28;20021;-78
2021/03/29 00:17:40;;;;;;;15.77;12.07;;;;;;;9.36;70.52;101867.38;5044072;28;20044;-80
2021/03/29 00:20:28;;;;;;;15.45;11.10;;;;;;;8.82;73.28;101866.44;5049076;28;20700;-76
2021/03/29 00:22:57;;;;;;;18.48;11.98;;;;;;;8.35;75.10;101863.31;5006758;28;20073;-78
2021/03/29 00:25:25;;;;;;;;;;;;;;;8.49;75.40;101866.84;5005438;28;20089;-80
2021/03/29 00:27:50;;;;;;;17.25;12.55;;;;;;;8.77;73.93;101871.25;4989161;28;19983;-78
2021/03/29 00:30:23;;;;;;;16.08;12.20;;;;;;;8.85;73.44;101854.66;4989787;28;20050;-77
2021/03/29 00:32:50;;;;;;;19.00;12.27;;;;;;;9.11;72.53;101870.94;5008335;28;20041;-75
2021/03/29 00:35:17;;;;;;;17.02;12.23;;;;;;;8.96;72.26;101870.81;5008584;28;20038;-91
2021/03/29 00:37:47;;;;;;;19.08;11.88;;;;;;;9.04;72.15;101861.91;4991263;28;20033;-93
2021/03/29 00:40:14;;;;;;;;;;;;;;;9.26;70.91;101877.88;5002624;28;20491;-87
2021/03/29 00:42:41;;;;;;;16.67;11.98;;;;;;;9.22;69.49;101875.09;4991063;28;19917;-84
2021/03/29 00:45:11;;;;;;;18.50;12.90;;;;;;;9.34;68.49;101863.81;5006344;28;20034;-89
2021/03/29 00:47:38;;;;;;;17.67;11.43;;;;;;;9.06;67.66;101828.53;4991350;28;20169;-83
2021/03/29 00:50:12;;;;;;;14.85;10.70;;;;;;;9.00;67.62;101871.94;5007388;28;20033;-85
2021/03/29 00:52:38;;;;;;;14.68;10.15;;;;;;;8.88;67.45;101862.59;5007684;28;20030;-80
2021/03/29 00:55:07;;;;;;;14.45;10.25;;;;;;;8.93;67.22;101875.75;5010392;28;20026;-81
2021/03/29 00:57:33;;;;;;;12.30;9.60;;;;;;;8.92;67.02;101860.22;5009297;28;20036;-81
2021/03/29 00:59:59;;;;;;;15.73;11.02;;;;;;;9.10;66.79;101874.31;5030681;28;20037;-79
2021/03/29 01:02:25;;;;;;;15.70;10.60;;;;;;;8.97;66.65;101858.81;5037073;28;20047;-80
2021/03/29 01:04:51;;;;;;;12.38;9.68;;;;;;;9.09;66.74;101869.06;5048339;28;20119;-79
2021/03/29 01:07:37;;;;;;;14.85;10.35;;;;;;;9.01;66.94;101878.84;5050014;28;20054;-88
2021/03/29 01:10:03;;;;;;;14.13;9.95;;;;;;;9.11;66.44;101875.19;4998666;28;20084;-82
2021/03/29 01:12:28;;;;;;;12.95;9.55;;;;;;;9.22;66.30;101892.22;5014844;28;20033;-82
2021/03/29 01:14:55;;;;;;;17.13;10.05;;;;;;;9.22;66.20;101884.50;5014525;28;20508;-80
2021/03/29 01:17:34;;;;;;;15.30;10.00;;;;;;;9.25;66.09;101889.00;5014577;28;20033;-83
2021/03/29 01:20:00;;;;;;;;;;;;;;;9.23;66.08;101894.94;5014629;28;20037;-83
2021/03/29 01:22:29;;;;;;;14.70;10.07;;;;;;;9.23;66.13;101887.22;5013996;28;19920;-83
2021/03/29 01:25:01;;;;;;;14.32;10.90;;;;;;;9.35;65.62;101896.53;5014707;28;20038;-85
2021/03/29 01:27:36;;;;;;;14.50;10.57;;;;;;;9.32;65.77;101881.75;5014222;28;20041;-89
2021/03/29 01:30:07;;;;;;;14.50;10.70;;;;;;;9.37;65.36;101894.91;5014314;28;20076;-84
2021/03/29 01:32:34;;;;;;;17.67;10.18;;;;;;;9.46;65.15;101900.69;5014065;28;20025;-82
2021/03/29 01:35:01;;;;;;;12.68;10.25;;;;;;;9.53;64.69;101902.88;5030525;28;20109;-84
2021/03/29 01:37:29;;;;;;;12.73;9.98;;;;;;;9.52;64.54;101892.44;5009191;28;20080;-82
2021/03/29 01:39:56;;;;;;;15.77;10.02;;;;;;;9.44;64.55;101886.78;5012116;28;20081;-83
2021/03/29 01:42:22;;;;;;;12.23;9.98;;;;;;;9.47;64.81;101896.41;5014261;28;20102;-85
2021/03/29 01:44:49;;;;;;;16.40;9.45;;;;;;;9.20;65.39;101905.03;5028626;28;20040;-83
2021/03/29 01:47:16;;;;;;;14.55;10.43;;;;;;;9.08;65.85;101906.78;5014413;28;20123;-84
2021/03/29 01:49:43;;;;;;;12.50;9.52;;;;;;;9.18;66.20;101909.22;5014447;28;20103;-83
2021/03/29 01:52:09;;;;;;;13.45;9.93;;;;;;;9.19;65.89;101908.38;5014391;28;20042;-83
2021/03/29 01:54:36;;;;;;;16.48;10.48;;;;;;;9.00;66.24;101898.56;5014208;28;20518;-83
2021/03/29 01:57:07;;;;;;;16.58;11.00;;;;;;;9.02;66.46;101906.38;5013842;28;20539;-82
2021/03/29 01:59:32;;;;;;;11.82;10.15;;;;;;;8.86;66.68;101886.44;5014208;28;20030;-83
2021/03/29 02:01:58;;;;;;;12.23;10.27;;;;;;;8.70;67.15;101879.41;5013922;28;20041;-82
2021/03/29 02:04:27;;;;;;;12.80;9.95;;;;;;;8.66;67.26;101873.16;5013139;28;20041;-83
2021/03/29 02:06:52;;;;;;;13.65;11.25;;;;;;;8.77;67.16;101878.13;5014171;28;20096;-83
2021/03/29 02:09:18;;;;;;;14.68;10.43;;;;;;;8.90;66.97;101896.19;5027541;28;20072;-81
2021/03/29 02:11:45;;;;;;;13.27;10.02;;;;;;;8.95;66.96;101897.38;5030732;28;20042;-83
2021/03/29 02:14:11;;;;;;;16.30;10.35;;;;;;;8.71;66.99;101851.16;5013882;28;20119;-83
2021/03/29 02:16:38;;;;;;;12.77;9.57;;;;;;;8.80;67.26;101883.44;5013688;28;20072;-81
2021/03/29 02:19:04;;;;;;;13.13;10.20;;;;;;;8.80;67.32;101879.22;5013537;28;20515;-83
2021/03/29 02:24:52;;;;;;;15.30;10.38;;;;;;;8.82;67.00;101859.63;5395691;22;20111;-84
2021/03/29 02:27:18;;;;;;;12.85;9.48;;;;;;;9.03;66.84;101892.72;5050602;28;20036;-83
2021/03/29 02:29:44;;;;;;;14.18;10.57;;;;;;;9.04;66.45;101884.19;5051488;28;20415;-83
2021/03/29 02:32:10;;;;;;;15.43;10.70;;;;;;;9.22;66.63;101903.44;5051313;28;20029;-84
2021/03/29 02:34:36;;;;;;;15.70;10.55;;;;;;;9.23;66.29;101900.09;5051258;28;20094;-83
2021/03/29 02:40:25;;;;;;;14.43;9.18;;;;;;;8.48;67.31;101901.09;5063375;22;20111;-83
2021/03/29 02:42:54;;;;;;;14.68;9.40;;;;;;;8.67;67.30;101913.56;5034657;28;20111;-80
2021/03/29 02:45:22;;;;;;;13.82;10.45;;;;;;;8.35;67.41;101862.38;5034589;28;20470;-80
2021/03/29 02:47:48;;;;;;;14.10;10.50;;;;;;;8.72;67.60;101911.28;5046642;28;20051;-80
2021/03/29 02:50:24;;;;;;;14.43;9.68;;;;;;;8.65;67.69;101915.13;5050970;28;20490;-78
2021/03/29 02:52:57;;;;;;;14.77;10.25;;;;;;;8.52;67.84;101882.50;5036974;28;20111;-80
2021/03/29 02:55:24;;;;;;;14.98;10.07;;;;;;;8.82;67.35;101924.00;5034298;28;20479;-79
2021/03/29 02:57:53;;;;;;;13.00;9.32;;;;;;;8.87;67.14;101917.47;5045921;28;20021;-81
2021/03/29 03:00:23;;;;;;;14.70;9.48;;;;;;;8.66;66.97;101869.66;5050631;28;20047;-79
2021/03/29 03:02:51;;;;;;;12.43;10.10;;;;;;;9.07;66.73;101928.19;5050961;28;20033;-80
2021/03/29 03:05:19;;;;;;;14.63;9.20;;;;;;;9.10;66.61;101920.69;5034254;28;20395;-80
2021/03/29 03:07:45;;;;;;;15.65;9.73;;;;;;;8.94;66.95;101912.72;5034092;28;20028;-80
2021/03/29 03:10:14;;;;;;;12.57;9.55;;;;;;;8.88;66.82;101918.34;5031558;28;20410;-82
2021/03/29 03:12:49;;;;;;;14.20;9.82;;;;;;;8.88;66.37;101921.84;5023977;28;20029;-81
2021/03/29 03:15:24;;;;;;;12.45;9.77;;;;;;;8.55;67.20;101912.72;5013913;28;20033;-80
2021/03/29 03:17:52;;;;;;;15.38;10.05;;;;;;;8.54;67.53;101924.66;5022318;28;20098;-80
2021/03/29 03:20:17;;;;;;;13.57;9.52;;;;;;;8.64;67.19;101915.03;5050393;28;20063;-80
2021/03/29 03:22:59;;;;;;;13.32;10.48;;;;;;;8.56;68.13;101920.53;5050325;28;20033;-80
2021/03/29 03:25:31;;;;;;;17.45;12.65;;;;;;;8.30;70.98;101913.56;5051426;28;20054;-80
2021/03/29 03:28:00;;;;;;;16.73;12.85;;;;;;;8.19;72.21;101920.53;5050476;28;20037;-81
2021/03/29 03:30:37;;;;;;;14.95;11.55;;;;;;;8.05;73.41;101909.28;5050320;28;20029;-80
2021/03/29 03:33:05;;;;;;;16.48;11.60;;;;;;;8.12;74.05;101918.28;5050201;28;20037;-80
2021/03/29 03:35:33;;;;;;;14.00;11.20;;;;;;;7.98;73.49;101871.03;5050452;28;20071;-80
2021/03/29 03:38:02;;;;;;;33.08;18.40;;;;;;;8.38;72.64;101925.25;5049943;28;20029;-80
2021/03/29 03:40:30;;;;;;;16.75;11.25;;;;;;;7.75;73.63;101918.25;5049994;28;20525;-81
2021/03/29 03:42:59;;;;;;;17.83;11.77;;;;;;;7.58;74.62;101938.50;5050279;28;20041;-80
2021/03/29 03:45:28;;;;;;;18.48;12.05;;;;;;;7.41;74.65;101929.59;5050297;28;20510;-80
2021/03/29 03:47:56;;;;;;;18.27;10.13;;;;;;;6.97;74.51;101870.69;5050069;28;20033;-80
2021/03/29 03:50:23;;;;;;;16.38;10.13;;;;;;;7.16;74.47;101896.03;5050082;28;20661;-80
2021/03/29 03:52:50;;;;;;;18.20;10.77;;;;;;;7.44;73.84;101919.50;5049848;28;20025;-80
2021/03/29 03:55:17;;;;;;;17.23;11.35;;;;;;;7.51;73.31;101920.84;5049798;28;20029;-80
2021/03/29 03:57:42;;;;;;;16.85;11.55;;;;;;;7.42;73.94;101940.75;5049929;28;20408;-80
2021/03/29 04:00:14;;;;;;;17.65;12.10;;;;;;;7.76;73.38;101958.59;5049868;28;20025;-80
2021/03/29 04:02:40;;;;;;;15.95;11.50;;;;;;;7.82;72.80;101947.88;5051014;28;20048;-80
2021/03/29 04:05:15;;;;;;;17.35;12.13;;;;;;;7.85;72.59;101960.94;5048887;28;20064;-82
2021/03/29 04:07:42;;;;;;;20.67;11.52;;;;;;;7.96;72.13;101951.44;5048737;28;20115;-82
2021/03/29 04:10:17;;;;;;;15.07;10.85;;;;;;;7.99;71.79;101961.94;5048732;28;20033;-82
2021/03/29 04:12:44;;;;;;;17.55;12.80;;;;;;;8.05;71.72;101971.00;5031910;28;20439;-81
2021/03/29 04:15:13;;;;;;;20.75;13.45;;;;;;;7.91;72.39;101967.44;5048733;28;20070;-82
2021/03/29 04:17:40;;;;;;;24.80;12.70;;;;;;;7.85;72.74;101968.66;5048654;28;20041;-83
2021/03/29 04:20:07;;;;;;;30.25;12.45;;;;;;;7.49;72.73;101926.66;5048585;28;20498;-84
2021/03/29 04:22:32;;;;;;;17.67;12.60;;;;;;;7.88;72.40;101974.94;5040318;28;20049;-83
2021/03/29 04:24:58;;;;;;;26.00;12.57;;;;;;;8.02;72.07;101972.47;5020091;28;20041;-83
2021/03/29 04:27:23;;;;;;;17.60;11.85;;;;;;;8.05;71.46;101967.50;5029894;28;20037;-83
2021/03/29 04:29:49;;;;;;;18.67;12.63;;;;;;;8.14;71.32;101969.84;5008404;28;20423;-82
2021/03/29 04:32:14;;;;;;;17.92;12.55;;;;;;;8.17;70.96;101960.66;5009134;28;20037;-82
2021/03/29 04:34:40;;;;;;;18.42;11.93;;;;;;;7.87;71.13;101956.81;5010076;28;20198;-80
2021/03/29 04:37:05;;;;;;;15.50;10.40;;;;;;;7.90;71.32;101969.88;5005418;28;20045;-80
2021/03/29 04:39:31;;;;;;;17.00;10.52;;;;;;;7.85;71.39;101977.28;5006253;28;20149;-81
2021/03/29 04:41:56;;;;;;;16.90;11.18;;;;;;;7.99;71.32;101985.09;5015825;28;20040;-84
2021/03/29 04:44:22;;;;;;;14.15;10.40;;;;;;;8.17;70.41;101982.94;5025906;28;20125;-82
2021/03/29 04:46:47;;;;;;;16.33;10.25;;;;;;;8.18;69.96;101974.44;5015438;28;20470;-81
2021/03/29 04:49:13;;;;;;;15.55;9.90;;;;;;;8.15;70.58;101984.50;5008815;28;20173;-81
2021/03/29 04:51:38;;;;;;;25.40;16.15;;;;;;;8.30;70.30;101987.28;5015070;28;20100;-81
2021/03/29 04:54:04;;;;;;;32.30;19.15;;;;;;;8.37;69.81;101981.78;5012575;28;20116;-79
2021/03/29 04:56:30;;;;;;;28.45;17.52;;;;;;;8.57;69.39;101991.84;5014843;28;20040;-86
2021/03/29 04:58:55;;;;;;;30.63;18.35;;;;;;;8.71;69.55;101987.63;5014961;28;20116;-82
2021/03/29 05:01:21;;;;;;;18.92;12.35;;;;;;;8.65;68.75;101978.56;5016688;28;20029;-83
2021/03/29 05:03:46;;;;;;;25.00;12.55;;;;;;;8.71;69.09;102005.66;5036072;28;20036;-83
2021/03/29 05:06:12;;;;;;;21.90;12.65;;;;;;;8.38;70.03;101992.16;5053511;28;20082;-81
2021/03/29 05:08:37;;;;;;;21.05;12.60;;;;;;;8.07;71.33;101989.09;5035286;28;20402;-88
2021/03/29 05:11:03;;;;;;;16.75;13.35;;;;;;;7.89;71.67;101983.56;5035984;28;20017;-87
2021/03/29 05:13:28;;;;;;;23.05;12.75;;;;;;;8.14;71.70;102016.16;5035625;28;20410;-88
2021/03/29 05:15:54;;;;;;;25.40;13.23;;;;;;;8.24;71.04;102011.78;5036289;28;20044;-88
2021/03/29 05:18:19;;;;;;;20.88;12.43;;;;;;;8.45;70.82;102021.81;5035982;28;20529;-83
2021/03/29 05:20:44;;;;;;;99.13;42.65;;;;;;;8.45;71.27;102000.31;5053851;28;20040;-83
2021/03/29 05:23:10;;;;;;;21.52;13.15;;;;;;;8.65;70.36;102025.81;5036001;28;20021;-83
2021/03/29 05:25:35;;;;;;;17.88;13.27;;;;;;;8.66;70.58;102021.56;5035959;28;20441;-83
2021/03/29 05:28:01;;;;;;;45.10;24.50;;;;;;;8.74;71.79;102023.00;5053615;28;20052;-85
2021/03/29 05:30:26;;;;;;;870.35;368.58;;;;;;;8.56;69.39;101999.41;5035725;28;20083;-85
2021/03/29 05:32:52;;;;;;;57.80;29.02;;;;;;;8.69;68.95;102021.78;5035832;28;20029;-86
2021/03/29 05:35:18;;;;;;;47.85;23.58;;;;;;;8.80;69.20;102022.50;5035430;28;20043;-85
2021/03/29 05:37:43;;;;;;;33.97;17.52;;;;;;;8.69;69.51;101984.03;5035360;28;20106;-85
2021/03/29 05:40:10;;;;;;;32.58;17.60;;;;;;;8.82;69.57;102016.72;5017895;28;20052;-85
2021/03/29 05:42:36;;;;;;;27.42;15.75;;;;;;;8.82;69.20;102015.78;5035406;28;20024;-84
2021/03/29 05:45:06;;;;;;;30.00;16.60;;;;;;;8.86;68.88;102008.41;5035563;28;20017;-85
2021/03/29 05:47:33;;;;;;;30.08;18.65;;;;;;;9.06;68.75;102029.47;5035608;28;20479;-85
2021/03/29 05:50:00;;;;;;;29.38;18.60;;;;;;;9.14;69.47;102033.44;5035403;28;20029;-85
2021/03/29 05:52:28;;;;;;;24.02;16.63;;;;;;;9.26;68.78;102050.53;5034949;28;20032;-86
2021/03/29 05:54:55;;;;;;;27.10;15.98;;;;;;;9.28;68.48;102041.22;5035074;28;20075;-85
2021/03/29 05:57:21;;;;;;;23.20;15.32;;;;;;;9.33;68.62;102050.16;5034821;28;20029;-86
2021/03/29 05:59:46;;;;;;;39.00;23.95;;;;;;;9.33;68.47;102035.59;5035379;28;20029;-85
2021/03/29 06:05:11;;;;;;;32.97;23.95;;;;;;;9.47;68.39;102054.56;6053324;22;20031;-81
2021/03/29 06:07:37;;;;;;;28.00;20.77;;;;;;;9.41;68.61;102041.28;4994768;28;20132;-81
2021/03/29 06:10:10;;;;;;;17.45;9.98;;;;;;;9.46;66.49;102051.88;4996227;28;20018;-81
2021/03/29 06:12:49;;;;;;;17.50;10.10;;;;;;;9.58;66.24;102047.53;4992577;28;20053;-81
2021/03/29 06:15:18;;;;;;;15.70;8.17;;;;;;;9.64;64.34;102047.06;4976304;28;20073;-81
2021/03/29 06:17:43;;;;;;;15.07;8.32;;;;;;;9.17;64.72;101971.84;4987453;28;20806;-81
2021/03/29 06:20:09;;;;;;;11.77;7.60;;;;;;;9.54;63.92;102043.88;4995317;28;20036;-81
2021/03/29 06:22:40;;;;;;;12.77;7.55;;;;;;;9.25;64.23;102036.75;4995783;28;20488;-81
2021/03/29 06:25:11;;;;;;;10.02;6.28;;;;;;;8.78;64.19;102009.53;4995672;28;20132;-81
2021/03/29 06:27:44;;;;;;;9.98;5.00;;;;;;;8.98;63.21;102057.25;5013093;28;20021;-81
2021/03/29 06:30:11;;;;;;;8.32;5.53;;;;;;;8.67;63.81;101992.44;5013013;28;20176;-81
2021/03/29 06:32:36;;;;;;;9.75;5.45;;;;;;;9.07;63.78;102057.00;4985684;28;20096;-80
2021/03/29 06:35:18;;;;;;;10.25;6.05;;;;;;;9.21;62.64;102048.53;4975899;28;20492;-81
2021/03/29 06:37:43;;;;;;;7.13;4.90;;;;;;;9.26;61.95;102061.75;4974402;28;21759;-81
2021/03/29 06:40:10;;;;;;;7.70;4.72;;;;;;;9.23;62.53;102062.44;5012598;28;20041;-81
2021/03/29 06:42:35;;;;;;;10.18;4.50;;;;;;;9.20;61.84;102049.31;4985595;28;20030;-81
2021/03/29 06:45:15;;;;;;;15.93;13.55;;;;;;;9.38;61.53;102057.44;4975634;28;20026;-80
2021/03/29 06:47:42;;;;;;;6.95;4.22;;;;;;;9.53;61.39;102054.97;4985238;28;20025;-78
2021/03/29 06:50:23;;;;;;;8.63;4.70;;;;;;;9.62;59.73;102046.06;4992070;28;20444;-80
2021/03/29 06:52:49;;;;;;;9.50;4.90;;;;;;;9.74;59.60;102054.59;5012282;28;20033;-79
2021/03/29 06:55:24;;;;;;;8.25;4.65;;;;;;;9.73;59.74;102054.50;5011959;28;20022;-79
2021/03/29 06:58:10;;;;;;;7.93;4.05;;;;;;;9.75;60.82;102047.78;5011871;28;20396;-82
2021/03/29 07:00:37;;;;;;;7.03;4.72;;;;;;;9.84;58.61;102048.38;4991950;28;20393;-82
2021/03/29 07:03:08;;;;;;;6.65;4.32;;;;;;;9.42;59.68;101990.59;4992991;28;20385;-80
2021/03/29 07:05:34;;;;;;;8.20;4.30;;;;;;;9.62;59.77;102053.78;5010213;28;20050;-80
2021/03/29 07:08:01;;;;;;;5.28;4.05;;;;;;;9.63;59.54;102055.56;5011481;28;20385;-82
2021/03/29 07:10:27;;;;;;;6.43;3.85;;;;;;;9.62;59.74;102034.06;4993765;28;20973;-86
2021/03/29 07:12:54;;;;;;;9.38;4.57;;;;;;;9.79;58.20;102048.06;5011599;28;20053;-85
2021/03/29 07:15:21;;;;;;;9.63;4.57;;;;;;;10.00;58.79;102045.97;4993803;28;20033;-85
2021/03/29 07:17:48;;;;;;;7.03;3.78;;;;;;;10.20;57.45;102042.13;4994354;28;20034;-75
2021/03/29 07:20:25;;;;;;;8.23;4.20;;;;;;;10.26;57.53;102039.03;5011843;28;20030;-81
2021/03/29 07:22:54;;;;;;;9.32;4.38;;;;;;;10.49;57.03;102031.84;5008833;28;20022;-83
2021/03/29 07:25:28;;;;;;;8.48;4.30;;;;;;;10.63;55.75;102040.47;5011714;28;20061;-85
2021/03/29 07:27:55;;;;;;;7.55;3.72;;;;;;;10.69;53.83;102043.41;4991667;28;20034;-82
2021/03/29 07:30:46;;;;;;;7.75;3.65;;;;;;;10.74;53.59;102048.88;5011437;28;20022;-82
2021/03/29 07:33:14;;;;;;;6.78;3.67;;;;;;;10.96;53.39;102035.59;5005203;28;20030;-81
2021/03/29 07:35:50;;;;;;;5.13;2.88;;;;;;;10.90;52.16;101992.16;4992283;28;20025;-82
2021/03/29 07:38:17;;;;;;;10.25;3.75;;;;;;;11.17;52.63;102038.56;5009444;28;20017;-82
2021/03/29 07:40:48;;;;;;;6.47;3.53;;;;;;;11.14;51.09;102036.69;4950489;29;20101;-88
2021/03/29 07:43:20;;;;;;;14.13;3.80;;;;;;;11.06;51.21;102030.16;4948460;29;20039;-82
2021/03/29 07:45:59;;;;;;;7.53;3.25;;;;;;;11.31;50.98;102049.72;4934442;29;20039;-82
2021/03/29 07:48:40;;;;;;;9.87;4.70;;;;;;;11.52;50.37;102026.81;4934881;29;20027;-82
2021/03/29 07:51:16;;;;;;;5.50;3.50;;;;;;;11.51;49.13;102024.16;4935149;29;20386;-82
2021/03/29 07:53:50;;;;;;;6.10;3.58;;;;;;;11.64;49.98;102030.13;4934073;29;20036;-82
2021/03/29 07:56:34;;;;;;;7.55;3.47;;;;;;;11.81;48.58;102030.19;4950466;28;20530;-82
2021/03/29 07:59:02;;;;;;;6.03;3.28;;;;;;;12.05;46.77;102022.97;4966272;28;20110;-83
2021/03/29 08:01:27;;;;;;;5.80;3.00;;;;;;;12.23;48.29;102028.25;4934670;29;20402;-84
2021/03/29 08:03:56;;;;;;;5.50;3.03;;;;;;;11.98;46.04;102018.25;4938540;29;20031;-82
2021/03/29 08:06:43;;;;;;;7.25;3.50;;;;;;;11.97;45.87;102032.91;4935831;29;20061;-87
2021/03/29 08:09:15;;;;;;;7.15;3.65;;;;;;;12.01;45.09;101965.75;4934268;29;20569;-83
2021/03/29 08:11:58;;;;;;;9.05;3.47;;;;;;;12.39;44.18;102026.53;4931163;29;20035;-83
2021/03/29 08:14:29;;;;;;;8.68;3.63;;;;;;;12.27;44.63;102011.19;4917388;29;20455;-82
2021/03/29 08:16:54;;;;;;;6.05;3.53;;;;;;;12.46;43.93;101984.59;4919135;29;20593;-83
2021/03/29 08:19:21;;;;;;;7.68;4.53;;;;;;;12.74;43.86;102020.63;4975485;28;20034;-83
2021/03/29 08:22:10;;;;;;;8.80;3.97;;;;;;;13.01;41.88;102014.22;4992784;28;20117;-87
2021/03/29 08:24:49;;;;;;;6.13;2.93;;;;;;;13.09;41.99;102021.59;4887504;29;20036;-84
2021/03/29 08:27:14;;;;;;;7.30;3.08;;;;;;;13.23;41.64;102019.72;4880072;29;20043;-85
2021/03/29 08:29:42;;;;;;;7.10;3.40;;;;;;;13.26;41.81;102013.81;4867504;29;20045;-88
2021/03/29 08:32:09;;;;;;;14.30;3.75;;;;;;;13.30;41.27;102002.75;4869922;29;20061;-84
2021/03/29 08:34:55;;;;;;;8.18;2.97;;;;;;;13.43;40.51;102005.19;4860584;29;20071;-86
2021/03/29 08:37:44;;;;;;;4.93;2.95;;;;;;;13.38;40.09;101996.31;4859991;29;20049;-84
2021/03/29 08:40:20;;;;;;;6.22;3.22;;;;;;;13.51;44.26;102007.28;4870508;29;20037;-86
2021/03/29 08:42:48;;;;;;;7.32;3.38;;;;;;;13.60;42.76;102015.50;4854103;29;20029;-86
2021/03/29 08:45:19;;;;;;;7.03;3.08;;;;;;;13.35;42.91;101977.06;4859923;29;20048;-86
2021/03/29 08:47:48;;;;;;;5.88;3.17;;;;;;;13.72;41.26;102010.94;4870027;29;20072;-86
2021/03/29 08:50:18;;;;;;;6.68;3.35;;;;;;;13.86;39.65;102003.81;4891441;29;20037;-84
2021/03/29 08:52:49;;;;;;;8.23;3.67;;;;;;;13.77;39.27;101997.28;4897664;29;20085;-84
2021/03/29 08:55:28;;;;;;;7.30;3.17;;;;;;;13.83;39.64;101984.59;4886785;29;20045;-84
2021/03/29 08:57:55;;;;;;;7.03;3.20;;;;;;;13.66;38.73;101971.69;4879125;29;20131;-87
2021/03/29 09:00:24;;;;;;;4.80;2.70;;;;;;;13.74;37.51;101983.34;4897990;29;20040;-89
2021/03/29 09:02:51;;;;;;;6.22;3.45;;;;;;;13.94;36.19;101991.19;4996667;28;20030;-86
2021/03/29 09:05:19;;;;;;;8.82;3.20;;;;;;;13.97;35.49;101993.94;4996661;28;20141;-87
2021/03/29 09:07:51;;;;;;;5.47;3.28;;;;;;;14.13;38.08;101995.56;5016577;28;20042;-84
2021/03/29 09:10:23;;;;;;;7.50;3.40;;;;;;;13.98;35.88;101992.22;5017638;28;20403;-86
2021/03/29 09:13:10;;;;;;;10.32;3.10;;;;;;;14.24;37.78;101983.97;4994338;28;20079;-87
2021/03/29 09:15:38;;;;;;;9.88;3.53;;;;;;;14.12;36.41;101988.59;4990253;28;20030;-88
2021/03/29 09:18:09;;;;;;;7.45;3.50;;;;;;;14.08;38.13;101969.38;4993608;28;20034;-88
2021/03/29 09:20:38;;;;;;;7.60;3.55;;;;;;;14.43;37.15;101986.50;4988465;28;21243;-88
2021/03/29 09:23:07;;;;;;;9.95;3.92;;;;;;;14.70;37.41;101976.47;4990446;28;20034;-84
2021/03/29 09:25:36;;;;;;;7.03;3.03;;;;;;;14.81;36.83;101963.97;4975371;28;20062;-81
2021/03/29 09:28:12;;;;;;;9.50;2.90;;;;;;;14.95;35.53;101964.56;4992605;28;20038;-83
2021/03/29 09:30:40;;;;;;;8.20;3.70;;;;;;;15.03;35.82;101955.38;4989826;28;20045;-81
2021/03/29 09:33:06;;;;;;;6.53;2.92;;;;;;;14.85;34.90;101904.38;4975281;28;20026;-81
2021/03/29 09:35:32;;;;;;;6.63;3.00;;;;;;;15.26;35.31;101955.47;4975361;28;20448;-84
2021/03/29 09:37:58;;;;;;;5.75;2.92;;;;;;;15.22;35.71;101945.75;4987654;28;20092;-83
2021/03/29 09:40:24;;;;;;;11.77;3.58;;;;;;;15.33;36.97;101947.09;4975222;28;20038;-82
2021/03/29 09:42:53;;;;;;;5.88;2.90;;;;;;;15.46;34.53;101951.06;4975275;28;20038;-82
2021/03/29 09:45:26;;;;;;;5.27;2.90;;;;;;;15.45;33.62;101944.06;4973171;28;20057;-80
2021/03/29 09:48:25;;;;;;;6.30;2.95;;;;;;;15.36;33.74;101937.69;4975220;28;20164;-83
2021/03/29 09:50:51;;;;;;;9.20;3.55;;;;;;;15.20;34.07;101933.56;4924956;29;20036;-83
2021/03/29 09:53:22;;;;;;;5.38;2.70;;;;;;;15.34;35.83;101931.53;4933267;29;20118;-81
2021/03/29 09:55:56;;;;;;;9.15;3.83;;;;;;;15.35;33.75;101928.09;4933279;29;20044;-81
2021/03/29 09:58:27;;;;;;;6.07;2.90;;;;;;;15.62;33.58;101934.34;4933669;29;20028;-82
2021/03/29 10:00:55;;;;;;;6.28;2.80;;;;;;;15.62;33.05;101930.03;4927271;29;20082;-80
2021/03/29 10:03:22;;;;;;;7.55;3.17;;;;;;;15.27;33.68;101929.50;4952276;29;20023;-80
2021/03/29 10:05:50;;;;;;;6.68;2.90;;;;;;;15.25;33.98;101878.22;4913980;29;20142;-80
2021/03/29 10:08:33;;;;;;;6.82;3.15;;;;;;;15.66;34.80;101924.13;4898686;29;20032;-83
2021/03/29 10:11:13;;;;;;;6.85;3.20;;;;;;;16.03;33.78;101918.59;4867419;29;20050;-86
2021/03/29 10:13:39;;;;;;;;;;;;;;;15.87;32.64;101920.59;4859871;29;20040;-81
2021/03/29 10:16:25;;;;;;;6.22;3.17;;;;;;;15.79;33.33;101912.47;4871210;29;19920;-80
2021/03/29 10:19:07;;;;;;;5.85;3.03;;;;;;;16.04;33.66;101910.84;4876004;29;20032;-83
2021/03/29 10:21:54;;;;;;;9.27;3.05;;;;;;;16.12;33.05;101900.69;4890820;29;20067;-80
2021/03/29 10:24:19;;;;;;;8.25;3.20;;;;;;;16.21;34.49;101905.38;4895936;29;20032;-84
2021/03/29 10:26:59;;;;;;;8.30;3.28;;;;;;;16.57;32.83;101897.09;4898479;29;20640;-83
2021/03/29 10:29:30;;;;;;;6.78;3.15;;;;;;;16.69;32.00;101891.44;4896276;29;20044;-87
2021/03/29 10:31:56;;;;;;;6.03;2.95;;;;;;;16.53;32.45;101890.88;4906615;29;20064;-87
2021/03/29 10:34:22;;;;;;;5.97;2.90;;;;;;;16.39;32.62;101889.53;4894083;29;20467;-88
2021/03/29 10:36:47;;;;;;;5.57;3.30;;;;;;;16.44;32.75;101874.94;4898114;29;20095;-85
2021/03/29 10:39:14;;;;;;;5.40;3.08;;;;;;;16.58;31.80;101878.88;4913626;29;20119;-85
2021/03/29 10:41:39;;;;;;;6.82;2.88;;;;;;;16.89;31.84;101873.84;4914038;29;20044;-84
2021/03/29 10:44:05;;;;;;;5.90;3.25;;;;;;;16.90;31.09;101867.81;4932583;29;20078;-85
2021/03/29 10:46:32;;;;;;;5.47;2.80;;;;;;;17.10;30.49;101873.72;4935825;29;20048;-83
2021/03/29 10:48:57;;;;;;;5.50;2.75;;;;;;;17.20;30.83;101870.56;4960017;28;20120;-82
2021/03/29 10:51:23;;;;;;;5.57;2.78;;;;;;;17.36;31.98;101869.31;4954993;28;20540;-87
2021/03/29 10:53:48;;;;;;;4.40;2.95;;;;;;;17.52;31.79;101875.91;4954864;28;20539;-83
2021/03/29 10:56:14;;;;;;;5.05;2.83;;;;;;;17.21;30.19;101843.63;4970864;28;20026;-83
2021/03/29 10:58:39;;;;;;;5.75;2.60;;;;;;;17.39;30.26;101861.56;4954747;28;20035;-83
2021/03/29 11:01:04;;;;;;;4.53;2.78;;;;;;;17.21;33.14;101856.66;4961584;28;20090;-84
2021/03/29 11:03:30;;;;;;;6.30;3.00;;;;;;;17.09;30.39;101861.50;4969868;28;20095;-86
2021/03/29 11:05:56;;;;;;;5.53;2.90;;;;;;;16.90;32.56;101854.75;4975395;28;20074;-83
2021/03/29 11:08:21;;;;;;;7.03;3.72;;;;;;;16.55;32.83;101828.34;4993047;28;20053;-82
2021/03/29 11:10:46;;;;;;;5.93;2.85;;;;;;;16.60;32.03;101845.94;4975299;28;20037;-83
2021/03/29 11:13:12;;;;;;;4.82;2.70;;;;;;;16.59;31.37;101838.06;4992663;28;20026;-83
2021/03/29 11:15:37;;;;;;;5.85;2.70;;;;;;;16.40;32.31;101784.41;4975262;28;20560;-80
2021/03/29 11:18:05;;;;;;;5.95;2.80;;;;;;;16.53;31.15;101817.00;4951263;29;20039;-82
2021/03/29 11:20:31;;;;;;;5.35;2.80;;;;;;;16.61;32.14;101831.19;4951567;29;20227;-81
2021/03/29 11:22:57;;;;;;;6.60;2.60;;;;;;;16.31;31.68;101795.41;4935580;29;20071;-81
2021/03/29 11:25:22;;;;;;;6.35;2.80;;;;;;;16.38;32.35;101814.75;4951617;29;20121;-80
2021/03/29 11:27:48;;;;;;;4.28;2.60;;;;;;;16.19;33.26;101811.50;4951659;29;20052;-82
2021/03/29 11:30:15;;;;;;;7.45;2.63;;;;;;;16.17;32.04;101768.88;4951430;29;20564;-82
2021/03/29 11:32:43;;;;;;;8.30;2.80;;;;;;;16.75;32.05;101810.81;4951444;29;20102;-83
2021/03/29 11:35:09;;;;;;;4.47;2.30;;;;;;;16.52;32.50;101770.91;4951403;29;20441;-81
2021/03/29 11:37:35;;;;;;;8.25;3.45;;;;;;;16.27;33.31;101785.72;4950472;28;20043;-81
2021/03/29 11:40:01;;;;;;;4.63;2.58;;;;;;;16.44;33.03;101781.97;4951640;29;20421;-81